Stoughton, Wisconsin
Current Conditions -  °F | °C
As of 11:53 AM on Thursday 29 Jan 2015 (Local Time) from KMSN Reporting Station
Overcast Overcast  
Wind Chill: 22°   Ceiling: 1800
Heat Index: 33°   Visibility: 10mi
Dew Point: 26°   Wind: 17mph
Humidity: 75%   Direction: 330°NNW
Pressure: 29.98"   Gusts: 29mph
Location:  42.92°N, 89.22°W
Report Text: KMSN 291753Z 33015G25KT 10SM OVC018 01/M03 A2998 RMK AO2 SLP163 4/001 60001 T00061033 10006 21011 51024
Loading
Personal Weather Stations






























Interactive Weather Map New forecast layout! Learn more

10-Day Weather Forecast

Advertisements
Track Severe Weather on mobile